sensor_id;sensor_type;location;lat;lon;timestamp;pressure;altitude;pressure_sealevel;temperature;humidity
49063;BME280;34876;51.464;-0.150;2023-04-28T00:03:10;100766.47;;;18.15;43.17
49063;BME280;34876;51.464;-0.150;2023-04-28T00:05:38;100763.67;;;18.16;43.12
49063;BME280;34876;51.464;-0.150;2023-04-28T00:08:08;100761.40;;;18.17;43.30
49063;BME280;34876;51.464;-0.150;2023-04-28T00:10:36;100758.80;;;18.17;43.23
49063;BME280;34876;51.464;-0.150;2023-04-28T00:13:04;100756.62;;;18.17;43.16
49063;BME280;34876;51.464;-0.150;2023-04-28T00:15:34;100749.29;;;18.17;43.15
49063;BME280;34876;51.464;-0.150;2023-04-28T00:18:04;100742.32;;;18.17;43.28
49063;BME280;34876;51.464;-0.150;2023-04-28T00:20:32;100741.63;;;18.18;43.20
49063;BME280;34876;51.464;-0.150;2023-04-28T00:23:07;100734.23;;;18.19;43.31
49063;BME280;34876;51.464;-0.150;2023-04-28T00:25:36;100729.05;;;18.19;43.44
49063;BME280;34876;51.464;-0.150;2023-04-28T00:28:04;100723.41;;;18.18;43.27
49063;BME280;34876;51.464;-0.150;2023-04-28T00:30:33;100724.72;;;18.18;43.32
49063;BME280;34876;51.464;-0.150;2023-04-28T00:33:03;100721.46;;;18.20;43.34
49063;BME280;34876;51.464;-0.150;2023-04-28T00:35:33;100721.79;;;18.20;43.43
49063;BME280;34876;51.464;-0.150;2023-04-28T00:38:03;100721.96;;;18.21;43.33
49063;BME280;34876;51.464;-0.150;2023-04-28T00:40:33;100724.10;;;18.23;43.26
49063;BME280;34876;51.464;-0.150;2023-04-28T00:43:02;100721.54;;;18.22;43.38
49063;BME280;34876;51.464;-0.150;2023-04-28T00:45:31;100719.20;;;18.23;43.36
49063;BME280;34876;51.464;-0.150;2023-04-28T00:48:00;100717.16;;;18.24;43.31
49063;BME280;34876;51.464;-0.150;2023-04-28T00:50:29;100715.79;;;18.24;43.41
49063;BME280;34876;51.464;-0.150;2023-04-28T00:53:00;100713.80;;;18.25;43.40
49063;BME280;34876;51.464;-0.150;2023-04-28T00:55:32;100713.92;;;18.25;43.35
49063;BME280;34876;51.464;-0.150;2023-04-28T00:58:04;100713.02;;;18.25;43.44
49063;BME280;34876;51.464;-0.150;2023-04-28T01:00:40;100712.10;;;18.26;43.42
49063;BME280;34876;51.464;-0.150;2023-04-28T01:03:11;100712.35;;;18.25;43.42
49063;BME280;34876;51.464;-0.150;2023-04-28T01:05:46;100713.76;;;18.26;43.48
49063;BME280;34876;51.464;-0.150;2023-04-28T01:08:16;100711.20;;;18.27;43.50
49063;BME280;34876;51.464;-0.150;2023-04-28T01:10:55;100708.61;;;18.28;43.42
49063;BME280;34876;51.464;-0.150;2023-04-28T01:13:25;100710.05;;;18.28;43.43
49063;BME280;34876;51.464;-0.150;2023-04-28T01:15:55;100713.05;;;18.29;43.64
49063;BME280;34876;51.464;-0.150;2023-04-28T01:18:24;100713.60;;;18.28;43.57
49063;BME280;34876;51.464;-0.150;2023-04-28T01:20:53;100710.69;;;18.28;43.58
49063;BME280;34876;51.464;-0.150;2023-04-28T01:23:23;100711.19;;;18.29;43.55
49063;BME280;34876;51.464;-0.150;2023-04-28T01:25:51;100706.78;;;18.29;43.52
49063;BME280;34876;51.464;-0.150;2023-04-28T01:28:21;100704.72;;;18.30;43.62
49063;BME280;34876;51.464;-0.150;2023-04-28T01:30:49;100707.18;;;18.30;43.48
49063;BME280;34876;51.464;-0.150;2023-04-28T01:33:19;100704.90;;;18.31;43.52
49063;BME280;34876;51.464;-0.150;2023-04-28T01:35:48;100705.16;;;18.31;43.53
49063;BME280;34876;51.464;-0.150;2023-04-28T01:38:17;100707.07;;;18.32;43.58
49063;BME280;34876;51.464;-0.150;2023-04-28T01:40:46;100702.52;;;18.28;43.75
49063;BME280;34876;51.464;-0.150;2023-04-28T01:43:16;100706.17;;;18.27;43.71
49063;BME280;34876;51.464;-0.150;2023-04-28T01:45:45;100704.37;;;18.26;43.72
49063;BME280;34876;51.464;-0.150;2023-04-28T01:48:14;100703.85;;;18.28;43.64
49063;BME280;34876;51.464;-0.150;2023-04-28T01:50:43;100697.44;;;18.30;43.60
49063;BME280;34876;51.464;-0.150;2023-04-28T01:53:13;100696.15;;;18.32;43.56
49063;BME280;34876;51.464;-0.150;2023-04-28T01:55:42;100699.62;;;18.32;43.62
49063;BME280;34876;51.464;-0.150;2023-04-28T01:58:11;100700.70;;;18.34;43.56
49063;BME280;34876;51.464;-0.150;2023-04-28T02:00:41;100698.82;;;18.32;43.65
49063;BME280;34876;51.464;-0.150;2023-04-28T02:03:11;100695.23;;;18.34;43.56
49063;BME280;34876;51.464;-0.150;2023-04-28T02:05:39;100698.31;;;18.33;43.59
49063;BME280;34876;51.464;-0.150;2023-04-28T02:08:08;100700.46;;;18.34;43.70
49063;BME280;34876;51.464;-0.150;2023-04-28T02:10:38;100699.76;;;18.34;43.65
49063;BME280;34876;51.464;-0.150;2023-04-28T02:13:07;100693.31;;;18.34;43.82
49063;BME280;34876;51.464;-0.150;2023-04-28T02:15:39;100695.16;;;18.33;43.79
49063;BME280;34876;51.464;-0.150;2023-04-28T02:18:08;100695.10;;;18.33;43.74
49063;BME280;34876;51.464;-0.150;2023-04-28T02:20:37;100698.74;;;18.35;43.66
49063;BME280;34876;51.464;-0.150;2023-04-28T02:23:07;100701.33;;;18.36;43.52
49063;BME280;34876;51.464;-0.150;2023-04-28T02:25:36;100700.81;;;18.38;43.53
49063;BME280;34876;51.464;-0.150;2023-04-28T02:28:06;100703.42;;;18.38;43.53
49063;BME280;34876;51.464;-0.150;2023-04-28T02:30:35;100704.38;;;18.38;43.59
49063;BME280;34876;51.464;-0.150;2023-04-28T02:33:05;100704.31;;;18.38;43.61
49063;BME280;34876;51.464;-0.150;2023-04-28T02:35:34;100704.97;;;18.38;43.62
49063;BME280;34876;51.464;-0.150;2023-04-28T02:38:03;100703.46;;;18.38;43.65
49063;BME280;34876;51.464;-0.150;2023-04-28T02:40:32;100704.63;;;18.40;43.67
49063;BME280;34876;51.464;-0.150;2023-04-28T02:43:01;100706.51;;;18.40;43.71
49063;BME280;34876;51.464;-0.150;2023-04-28T02:45:29;100707.88;;;18.38;43.71
49063;BME280;34876;51.464;-0.150;2023-04-28T02:47:58;100710.07;;;18.39;43.65
49063;BME280;34876;51.464;-0.150;2023-04-28T02:50:26;100708.07;;;18.40;43.68
49063;BME280;34876;51.464;-0.150;2023-04-28T02:52:55;100705.95;;;18.41;43.65
49063;BME280;34876;51.464;-0.150;2023-04-28T02:55:24;100703.47;;;18.41;43.67
49063;BME280;34876;51.464;-0.150;2023-04-28T02:57:53;100703.11;;;18.41;43.69
49063;BME280;34876;51.464;-0.150;2023-04-28T03:00:21;100704.44;;;18.39;43.84
49063;BME280;34876;51.464;-0.150;2023-04-28T03:02:50;100707.37;;;18.40;43.77
49063;BME280;34876;51.464;-0.150;2023-04-28T03:05:19;100706.48;;;18.40;43.73
49063;BME280;34876;51.464;-0.150;2023-04-28T03:07:48;100703.57;;;18.40;43.77
49063;BME280;34876;51.464;-0.150;2023-04-28T03:10:17;100699.67;;;18.40;43.83
49063;BME280;34876;51.464;-0.150;2023-04-28T03:12:46;100703.98;;;18.41;43.80
49063;BME280;34876;51.464;-0.150;2023-04-28T03:15:15;100707.61;;;18.40;43.79
49063;BME280;34876;51.464;-0.150;2023-04-28T03:17:44;100705.45;;;18.41;43.90
49063;BME280;34876;51.464;-0.150;2023-04-28T03:20:13;100706.73;;;18.40;43.85
49063;BME280;34876;51.464;-0.150;2023-04-28T03:22:41;100708.67;;;18.43;43.78
49063;BME280;34876;51.464;-0.150;2023-04-28T03:25:10;100708.48;;;18.41;43.84
49063;BME280;34876;51.464;-0.150;2023-04-28T03:27:40;100707.18;;;18.42;43.88
49063;BME280;34876;51.464;-0.150;2023-04-28T03:30:09;100707.06;;;18.40;43.83
49063;BME280;34876;51.464;-0.150;2023-04-28T03:32:39;100708.25;;;18.42;43.82
49063;BME280;34876;51.464;-0.150;2023-04-28T03:35:08;100706.89;;;18.42;43.85
49063;BME280;34876;51.464;-0.150;2023-04-28T03:37:37;100709.69;;;18.40;43.83
49063;BME280;34876;51.464;-0.150;2023-04-28T03:40:07;100714.04;;;18.40;43.89
49063;BME280;34876;51.464;-0.150;2023-04-28T03:42:36;100717.88;;;18.40;43.89
49063;BME280;34876;51.464;-0.150;2023-04-28T03:45:06;100715.06;;;18.38;44.10
49063;BME280;34876;51.464;-0.150;2023-04-28T03:47:35;100714.28;;;18.38;43.95
49063;BME280;34876;51.464;-0.150;2023-04-28T03:50:04;100716.14;;;18.26;44.64
49063;BME280;34876;51.464;-0.150;2023-04-28T03:52:33;100709.81;;;18.37;44.24
49063;BME280;34876;51.464;-0.150;2023-04-28T03:55:03;100706.56;;;18.39;43.90
49063;BME280;34876;51.464;-0.150;2023-04-28T03:57:32;100706.61;;;18.39;43.99
49063;BME280;34876;51.464;-0.150;2023-04-28T04:00:01;100706.79;;;18.39;43.94
49063;BME280;34876;51.464;-0.150;2023-04-28T04:02:29;100709.00;;;18.40;43.95
49063;BME280;34876;51.464;-0.150;2023-04-28T04:04:59;100708.02;;;18.41;43.94
49063;BME280;34876;51.464;-0.150;2023-04-28T04:07:28;100702.04;;;18.39;43.98
49063;BME280;34876;51.464;-0.150;2023-04-28T04:09:57;100707.56;;;18.41;43.91
49063;BME280;34876;51.464;-0.150;2023-04-28T04:12:26;100711.95;;;18.42;43.98
49063;BME280;34876;51.464;-0.150;2023-04-28T04:14:55;100714.31;;;18.41;44.03
49063;BME280;34876;51.464;-0.150;2023-04-28T04:17:24;100716.83;;;18.40;43.94
49063;BME280;34876;51.464;-0.150;2023-04-28T04:19:54;100721.05;;;18.39;44.08
49063;BME280;34876;51.464;-0.150;2023-04-28T04:22:23;100716.92;;;18.41;44.20
49063;BME280;34876;51.464;-0.150;2023-04-28T04:24:52;100721.09;;;18.41;44.02
49063;BME280;34876;51.464;-0.150;2023-04-28T04:27:21;100724.28;;;18.41;44.13
49063;BME280;34876;51.464;-0.150;2023-04-28T04:29:50;100726.23;;;18.41;44.04
49063;BME280;34876;51.464;-0.150;2023-04-28T04:32:20;100728.33;;;18.42;44.09
49063;BME280;34876;51.464;-0.150;2023-04-28T04:34:49;100731.32;;;18.41;44.10
49063;BME280;34876;51.464;-0.150;2023-04-28T04:37:18;100733.16;;;18.42;44.23
49063;BME280;34876;51.464;-0.150;2023-04-28T04:39:47;100735.54;;;18.41;44.12
49063;BME280;34876;51.464;-0.150;2023-04-28T04:42:16;100734.59;;;18.41;44.14
49063;BME280;34876;51.464;-0.150;2023-04-28T04:44:44;100735.98;;;18.43;44.12
49063;BME280;34876;51.464;-0.150;2023-04-28T04:47:14;100743.95;;;18.42;44.11
49063;BME280;34876;51.464;-0.150;2023-04-28T04:49:42;100748.10;;;18.43;44.06
49063;BME280;34876;51.464;-0.150;2023-04-28T04:52:11;100743.90;;;18.42;44.19
49063;BME280;34876;51.464;-0.150;2023-04-28T04:54:40;100742.88;;;18.41;44.07
49063;BME280;34876;51.464;-0.150;2023-04-28T04:57:10;100748.00;;;18.40;44.09
49063;BME280;34876;51.464;-0.150;2023-04-28T04:59:39;100747.38;;;18.42;44.08
49063;BME280;34876;51.464;-0.150;2023-04-28T05:02:08;100748.57;;;18.41;44.12
49063;BME280;34876;51.464;-0.150;2023-04-28T05:04:37;100751.31;;;18.41;44.27
49063;BME280;34876;51.464;-0.150;2023-04-28T05:07:06;100751.56;;;18.41;44.17
49063;BME280;34876;51.464;-0.150;2023-04-28T05:09:35;100749.72;;;18.42;44.05
49063;BME280;34876;51.464;-0.150;2023-04-28T05:12:04;100755.16;;;18.43;44.04
49063;BME280;34876;51.464;-0.150;2023-04-28T05:14:34;100756.30;;;18.43;44.23
49063;BME280;34876;51.464;-0.150;2023-04-28T05:17:03;100757.16;;;18.41;44.14
49063;BME280;34876;51.464;-0.150;2023-04-28T05:19:32;100759.96;;;18.42;44.12
49063;BME280;34876;51.464;-0.150;2023-04-28T05:22:01;100765.34;;;18.44;44.02
49063;BME280;34876;51.464;-0.150;2023-04-28T05:24:30;100771.70;;;18.44;44.05
49063;BME280;34876;51.464;-0.150;2023-04-28T05:27:00;100773.19;;;18.43;44.09
49063;BME280;34876;51.464;-0.150;2023-04-28T05:29:29;100777.97;;;18.43;44.13
49063;BME280;34876;51.464;-0.150;2023-04-28T05:32:04;100775.55;;;18.45;44.13
49063;BME280;34876;51.464;-0.150;2023-04-28T05:34:32;100775.84;;;18.45;44.10
49063;BME280;34876;51.464;-0.150;2023-04-28T05:37:01;100775.06;;;18.46;44.04
49063;BME280;34876;51.464;-0.150;2023-04-28T05:39:36;100773.31;;;18.47;43.95
49063;BME280;34876;51.464;-0.150;2023-04-28T05:42:06;100779.66;;;18.45;44.02
49063;BME280;34876;51.464;-0.150;2023-04-28T05:44:35;100776.75;;;18.47;44.06
49063;BME280;34876;51.464;-0.150;2023-04-28T05:47:05;100780.51;;;18.45;44.12
49063;BME280;34876;51.464;-0.150;2023-04-28T05:49:34;100780.76;;;18.49;44.12
49063;BME280;34876;51.464;-0.150;2023-04-28T05:52:04;100787.39;;;18.49;44.02
49063;BME280;34876;51.464;-0.150;2023-04-28T05:54:33;100786.84;;;18.58;43.92
49063;BME280;34876;51.464;-0.150;2023-04-28T05:57:02;100787.01;;;18.54;43.94
49063;BME280;34876;51.464;-0.150;2023-04-28T05:59:31;100786.96;;;18.58;43.88
49063;BME280;34876;51.464;-0.150;2023-04-28T06:02:01;100788.66;;;18.64;43.71
49063;BME280;34876;51.464;-0.150;2023-04-28T06:04:30;100792.18;;;18.70;43.56
49063;BME280;34876;51.464;-0.150;2023-04-28T06:06:59;100798.02;;;18.66;43.69
49063;BME280;34876;51.464;-0.150;2023-04-28T06:09:28;100802.48;;;18.62;43.82
49063;BME280;34876;51.464;-0.150;2023-04-28T06:11:57;100805.17;;;18.62;43.82
49063;BME280;34876;51.464;-0.150;2023-04-28T06:14:27;100808.92;;;18.59;43.99
49063;BME280;34876;51.464;-0.150;2023-04-28T06:16:56;100811.08;;;18.58;43.97
49063;BME280;34876;51.464;-0.150;2023-04-28T06:19:26;100811.65;;;18.54;44.03
49063;BME280;34876;51.464;-0.150;2023-04-28T06:21:55;100811.27;;;18.54;44.36
49063;BME280;34876;51.464;-0.150;2023-04-28T06:24:24;100813.36;;;18.60;43.99
49063;BME280;34876;51.464;-0.150;2023-04-28T06:26:53;100813.63;;;18.54;44.46
49063;BME280;34876;51.464;-0.150;2023-04-28T06:29:22;100815.38;;;18.56;44.21
49063;BME280;34876;51.464;-0.150;2023-04-28T06:31:51;100819.87;;;18.58;44.07
49063;BME280;34876;51.464;-0.150;2023-04-28T06:34:20;100823.34;;;18.53;44.18
49063;BME280;34876;51.464;-0.150;2023-04-28T06:36:49;100824.07;;;18.59;44.02
49063;BME280;34876;51.464;-0.150;2023-04-28T06:39:19;100829.21;;;18.55;44.31
49063;BME280;34876;51.464;-0.150;2023-04-28T06:41:49;100832.58;;;18.58;44.05
49063;BME280;34876;51.464;-0.150;2023-04-28T06:44:19;100834.55;;;18.54;44.33
49063;BME280;34876;51.464;-0.150;2023-04-28T06:46:48;100832.62;;;18.57;44.40
49063;BME280;34876;51.464;-0.150;2023-04-28T06:49:17;100835.27;;;18.56;44.33
49063;BME280;34876;51.464;-0.150;2023-04-28T06:51:46;100838.60;;;18.58;44.05
49063;BME280;34876;51.464;-0.150;2023-04-28T06:54:15;100838.92;;;18.54;45.10
49063;BME280;34876;51.464;-0.150;2023-04-28T06:56:45;100843.65;;;18.60;44.12
49063;BME280;34876;51.464;-0.150;2023-04-28T06:59:13;100844.74;;;18.60;44.35
49063;BME280;34876;51.464;-0.150;2023-04-28T07:01:42;100847.91;;;18.62;44.21
49063;BME280;34876;51.464;-0.150;2023-04-28T07:04:10;100849.63;;;18.61;44.01
49063;BME280;34876;51.464;-0.150;2023-04-28T07:06:40;100853.46;;;18.64;43.99
49063;BME280;34876;51.464;-0.150;2023-04-28T07:09:10;100853.53;;;18.64;44.09
49063;BME280;34876;51.464;-0.150;2023-04-28T07:11:40;100856.05;;;18.65;44.14
49063;BME280;34876;51.464;-0.150;2023-04-28T07:14:09;100856.75;;;18.65;44.11
49063;BME280;34876;51.464;-0.150;2023-04-28T07:16:38;100861.17;;;18.64;44.00
49063;BME280;34876;51.464;-0.150;2023-04-28T07:19:07;100864.55;;;18.64;44.03
49063;BME280;34876;51.464;-0.150;2023-04-28T07:21:36;100866.68;;;18.66;44.02
49063;BME280;34876;51.464;-0.150;2023-04-28T07:24:05;100864.29;;;18.66;44.01
49063;BME280;34876;51.464;-0.150;2023-04-28T07:26:34;100865.33;;;18.66;44.04
49063;BME280;34876;51.464;-0.150;2023-04-28T07:29:03;100870.10;;;18.66;44.03
49063;BME280;34876;51.464;-0.150;2023-04-28T07:31:32;100871.36;;;18.66;43.98
49063;BME280;34876;51.464;-0.150;2023-04-28T07:34:02;100875.96;;;18.69;43.98
49063;BME280;34876;51.464;-0.150;2023-04-28T07:36:31;100874.46;;;18.67;44.11
49063;BME280;34876;51.464;-0.150;2023-04-28T07:39:00;100874.92;;;18.68;43.95
49063;BME280;34876;51.464;-0.150;2023-04-28T07:41:29;100878.15;;;18.63;44.40
49063;BME280;34876;51.464;-0.150;2023-04-28T07:44:03;100879.07;;;18.55;44.46
49063;BME280;34876;51.464;-0.150;2023-04-28T07:46:33;100886.32;;;18.59;44.68
49063;BME280;34876;51.464;-0.150;2023-04-28T07:49:02;100889.64;;;18.68;44.04
49063;BME280;34876;51.464;-0.150;2023-04-28T07:51:31;100895.69;;;18.70;44.16
49063;BME280;34876;51.464;-0.150;2023-04-28T07:54:00;100898.47;;;18.75;43.84
49063;BME280;34876;51.464;-0.150;2023-04-28T07:56:30;100901.45;;;18.72;44.02
49063;BME280;34876;51.464;-0.150;2023-04-28T07:58:59;100902.81;;;18.74;44.14
49063;BME280;34876;51.464;-0.150;2023-04-28T08:01:28;100903.09;;;18.77;43.93
49063;BME280;34876;51.464;-0.150;2023-04-28T08:03:57;100905.77;;;18.79;44.58
49063;BME280;34876;51.464;-0.150;2023-04-28T08:06:26;100904.51;;;18.83;44.07
49063;BME280;34876;51.464;-0.150;2023-04-28T08:08:55;100907.91;;;18.82;43.98
49063;BME280;34876;51.464;-0.150;2023-04-28T08:11:25;100905.63;;;18.80;45.00
49063;BME280;34876;51.464;-0.150;2023-04-28T08:13:54;100902.29;;;18.79;43.89
49063;BME280;34876;51.464;-0.150;2023-04-28T08:16:24;100904.89;;;18.73;44.47
49063;BME280;34876;51.464;-0.150;2023-04-28T08:18:54;100909.12;;;18.76;44.33
49063;BME280;34876;51.464;-0.150;2023-04-28T08:21:23;100909.08;;;18.77;44.19
49063;BME280;34876;51.464;-0.150;2023-04-28T08:23:52;100912.94;;;18.80;43.99
49063;BME280;34876;51.464;-0.150;2023-04-28T08:26:21;100914.42;;;18.75;44.46
49063;BME280;34876;51.464;-0.150;2023-04-28T08:28:50;100913.71;;;18.75;44.38
49063;BME280;34876;51.464;-0.150;2023-04-28T08:31:19;100912.49;;;18.75;44.59
49063;BME280;34876;51.464;-0.150;2023-04-28T08:33:48;100917.28;;;18.75;44.62
49063;BME280;34876;51.464;-0.150;2023-04-28T08:36:17;100917.53;;;18.78;44.33
49063;BME280;34876;51.464;-0.150;2023-04-28T08:38:45;100923.60;;;18.77;44.39
49063;BME280;34876;51.464;-0.150;2023-04-28T08:41:15;100921.32;;;18.56;48.54
49063;BME280;34876;51.464;-0.150;2023-04-28T08:43:45;100921.37;;;18.74;44.81
49063;BME280;34876;51.464;-0.150;2023-04-28T08:46:15;100919.93;;;18.78;44.80
49063;BME280;34876;51.464;-0.150;2023-04-28T08:48:48;100919.26;;;18.86;44.40
49063;BME280;34876;51.464;-0.150;2023-04-28T08:51:27;100921.45;;;19.04;43.60
49063;BME280;34876;51.464;-0.150;2023-04-28T08:54:02;100925.26;;;18.93;44.27
49063;BME280;34876;51.464;-0.150;2023-04-28T08:56:32;100923.35;;;18.98;43.82
49063;BME280;34876;51.464;-0.150;2023-04-28T08:59:02;100925.24;;;18.98;44.65
49063;BME280;34876;51.464;-0.150;2023-04-28T09:01:32;100925.66;;;18.97;44.10
49063;BME280;34876;51.464;-0.150;2023-04-28T09:04:01;100930.15;;;18.91;44.04
49063;BME280;34876;51.464;-0.150;2023-04-28T09:06:31;100929.10;;;18.99;43.83
49063;BME280;34876;51.464;-0.150;2023-04-28T09:09:33;100931.60;;;19.02;43.62
49063;BME280;34876;51.464;-0.150;2023-04-28T09:12:03;100929.64;;;18.99;43.52
49063;BME280;34876;51.464;-0.150;2023-04-28T09:14:32;100937.24;;;18.93;43.84
49063;BME280;34876;51.464;-0.150;2023-04-28T09:17:08;100940.83;;;18.88;44.29
49063;BME280;34876;51.464;-0.150;2023-04-28T09:19:38;100943.77;;;18.84;44.66
49063;BME280;34876;51.464;-0.150;2023-04-28T09:22:08;100942.04;;;18.85;44.67
49063;BME280;34876;51.464;-0.150;2023-04-28T09:24:38;100944.99;;;18.85;44.60
49063;BME280;34876;51.464;-0.150;2023-04-28T09:27:09;100946.65;;;18.91;44.21
49063;BME280;34876;51.464;-0.150;2023-04-28T09:29:38;100948.23;;;19.04;43.94
49063;BME280;34876;51.464;-0.150;2023-04-28T09:32:16;100955.78;;;19.01;43.83
49063;BME280;34876;51.464;-0.150;2023-04-28T09:34:46;100954.51;;;18.93;43.98
49063;BME280;34876;51.464;-0.150;2023-04-28T09:37:16;100952.21;;;18.86;44.80
49063;BME280;34876;51.464;-0.150;2023-04-28T09:39:47;100955.75;;;19.04;43.84
49063;BME280;34876;51.464;-0.150;2023-04-28T09:42:33;100959.42;;;19.00;44.26
49063;BME280;34876;51.464;-0.150;2023-04-28T09:45:04;100965.02;;;18.95;44.33
49063;BME280;34876;51.464;-0.150;2023-04-28T09:47:35;100967.69;;;18.88;44.59
49063;BME280;34876;51.464;-0.150;2023-04-28T09:50:05;100972.59;;;18.88;44.69
49063;BME280;34876;51.464;-0.150;2023-04-28T09:52:35;100971.96;;;18.84;44.62
49063;BME280;34876;51.464;-0.150;2023-04-28T09:55:06;100972.02;;;18.88;44.67
49063;BME280;34876;51.464;-0.150;2023-04-28T09:57:36;100974.51;;;18.90;44.62
49063;BME280;34876;51.464;-0.150;2023-04-28T10:00:07;100977.07;;;18.89;44.41
49063;BME280;34876;51.464;-0.150;2023-04-28T10:02:37;100972.88;;;18.86;44.71
49063;BME280;34876;51.464;-0.150;2023-04-28T10:05:07;100977.81;;;18.95;43.97
49063;BME280;34876;51.464;-0.150;2023-04-28T10:07:36;100977.67;;;19.05;43.59
49063;BME280;34876;51.464;-0.150;2023-04-28T10:10:06;100976.53;;;19.00;43.53
49063;BME280;34876;51.464;-0.150;2023-04-28T10:12:35;100982.27;;;18.95;43.88
49063;BME280;34876;51.464;-0.150;2023-04-28T10:15:05;100980.10;;;18.87;44.62
49063;BME280;34876;51.464;-0.150;2023-04-28T10:17:35;100982.01;;;18.88;44.37
49063;BME280;34876;51.464;-0.150;2023-04-28T10:20:05;100981.94;;;18.84;44.63
49063;BME280;34876;51.464;-0.150;2023-04-28T10:22:59;100994.25;;;18.79;44.98
49063;BME280;34876;51.464;-0.150;2023-04-28T10:25:35;100996.32;;;18.82;44.64
49063;BME280;34876;51.464;-0.150;2023-04-28T10:28:06;101000.18;;;18.87;44.36
49063;BME280;34876;51.464;-0.150;2023-04-28T10:30:35;101009.50;;;18.73;50.93
49063;BME280;34876;51.464;-0.150;2023-04-28T10:33:38;101011.77;;;18.87;44.20
49063;BME280;34876;51.464;-0.150;2023-04-28T10:36:07;101019.64;;;18.87;44.10
49063;BME280;34876;51.464;-0.150;2023-04-28T10:39:07;101023.24;;;18.86;44.24
49063;BME280;34876;51.464;-0.150;2023-04-28T10:41:37;101026.46;;;18.86;44.12
49063;BME280;34876;51.464;-0.150;2023-04-28T10:45:11;101032.36;;;18.67;45.18
49063;BME280;34876;51.464;-0.150;2023-04-28T10:47:59;101036.54;;;18.87;44.09
49063;BME280;34876;51.464;-0.150;2023-04-28T10:50:28;101044.11;;;18.59;52.05
49063;BME280;34876;51.464;-0.150;2023-04-28T10:52:57;101038.45;;;18.86;44.28
49063;BME280;34876;51.464;-0.150;2023-04-28T10:55:31;101040.23;;;18.86;44.29
49063;BME280;34876;51.464;-0.150;2023-04-28T10:58:34;101044.93;;;18.85;44.87
49063;BME280;34876;51.464;-0.150;2023-04-28T11:01:34;101043.43;;;18.82;45.06
49063;BME280;34876;51.464;-0.150;2023-04-28T11:04:05;101052.52;;;18.81;45.10
49063;BME280;34876;51.464;-0.150;2023-04-28T11:06:37;101052.06;;;18.80;44.95
49063;BME280;34876;51.464;-0.150;2023-04-28T11:09:46;101055.07;;;18.85;44.84
49063;BME280;34876;51.464;-0.150;2023-04-28T11:12:14;101056.85;;;18.84;45.12
49063;BME280;34876;51.464;-0.150;2023-04-28T11:14:44;101051.95;;;18.83;45.13
49063;BME280;34876;51.464;-0.150;2023-04-28T11:17:13;101054.98;;;18.98;44.20
49063;BME280;34876;51.464;-0.150;2023-04-28T11:19:44;101051.42;;;19.07;43.84
49063;BME280;34876;51.464;-0.150;2023-04-28T11:22:15;101050.07;;;19.02;43.92
49063;BME280;34876;51.464;-0.150;2023-04-28T11:24:54;101050.94;;;18.94;44.55
49063;BME280;34876;51.464;-0.150;2023-04-28T11:27:23;101048.96;;;18.92;44.98
49063;BME280;34876;51.464;-0.150;2023-04-28T11:29:53;101046.98;;;18.88;45.42
49063;BME280;34876;51.464;-0.150;2023-04-28T11:32:26;101051.02;;;18.81;46.06
49063;BME280;34876;51.464;-0.150;2023-04-28T11:34:55;101057.23;;;18.84;45.40
49063;BME280;34876;51.464;-0.150;2023-04-28T11:37:25;101061.71;;;18.82;45.32
49063;BME280;34876;51.464;-0.150;2023-04-28T11:39:54;101064.89;;;18.74;46.16
49063;BME280;34876;51.464;-0.150;2023-04-28T11:42:23;101068.76;;;18.83;44.95
49063;BME280;34876;51.464;-0.150;2023-04-28T11:44:53;101072.84;;;18.80;45.87
49063;BME280;34876;51.464;-0.150;2023-04-28T11:47:31;101070.20;;;18.84;45.50
49063;BME280;34876;51.464;-0.150;2023-04-28T11:50:00;101072.57;;;18.86;45.42
49063;BME280;34876;51.464;-0.150;2023-04-28T11:52:29;101071.75;;;18.88;45.60
49063;BME280;34876;51.464;-0.150;2023-04-28T11:54:59;101075.67;;;18.92;45.29
49063;BME280;34876;51.464;-0.150;2023-04-28T11:57:28;101082.17;;;18.92;45.06
49063;BME280;34876;51.464;-0.150;2023-04-28T12:00:11;101081.80;;;19.01;48.57
49063;BME280;34876;51.464;-0.150;2023-04-28T12:02:40;101084.22;;;18.91;45.47
49063;BME280;34876;51.464;-0.150;2023-04-28T12:05:10;101093.39;;;18.50;52.40
49063;BME280;34876;51.464;-0.150;2023-04-28T12:07:41;101080.94;;;18.93;44.82
49063;BME280;34876;51.464;-0.150;2023-04-28T12:10:11;101086.75;;;18.94;45.60
49063;BME280;34876;51.464;-0.150;2023-04-28T12:12:40;101084.76;;;18.96;44.63
49063;BME280;34876;51.464;-0.150;2023-04-28T12:15:10;101088.86;;;18.89;46.54
49063;BME280;34876;51.464;-0.150;2023-04-28T12:17:40;101088.77;;;18.98;44.73
49063;BME280;34876;51.464;-0.150;2023-04-28T12:20:11;101092.51;;;19.01;45.11
49063;BME280;34876;51.464;-0.150;2023-04-28T12:22:44;101090.62;;;18.96;44.88
49063;BME280;34876;51.464;-0.150;2023-04-28T12:25:14;101092.09;;;18.94;49.51
49063;BME280;34876;51.464;-0.150;2023-04-28T12:27:58;101101.20;;;18.91;44.49
49063;BME280;34876;51.464;-0.150;2023-04-28T12:30:29;101104.55;;;18.94;44.70
49063;BME280;34876;51.464;-0.150;2023-04-28T12:32:58;101103.98;;;19.06;44.03
49063;BME280;34876;51.464;-0.150;2023-04-28T12:35:29;101104.14;;;19.08;43.87
49063;BME280;34876;51.464;-0.150;2023-04-28T12:37:58;101102.64;;;19.13;43.69
49063;BME280;34876;51.464;-0.150;2023-04-28T12:40:27;101107.72;;;19.09;43.69
49063;BME280;34876;51.464;-0.150;2023-04-28T12:42:56;101107.82;;;19.08;43.89
49063;BME280;34876;51.464;-0.150;2023-04-28T12:45:25;101110.77;;;18.94;50.66
49063;BME280;34876;51.464;-0.150;2023-04-28T12:47:54;101114.75;;;19.05;44.20
49063;BME280;34876;51.464;-0.150;2023-04-28T12:50:23;101117.94;;;19.12;43.96
49063;BME280;34876;51.464;-0.150;2023-04-28T12:52:52;101121.85;;;19.11;44.05
49063;BME280;34876;51.464;-0.150;2023-04-28T12:55:21;101128.75;;;18.97;44.30
49063;BME280;34876;51.464;-0.150;2023-04-28T12:57:50;101124.54;;;19.09;43.90
49063;BME280;34876;51.464;-0.150;2023-04-28T13:00:20;101132.88;;;18.99;50.11